createdAt,value
2018-09-25T00:00:42.755Z,100635.86
2018-09-25T00:03:16.275Z,100634.04
2018-09-25T00:05:50.516Z,100642.26
2018-09-25T00:08:23.982Z,100645.40
2018-09-25T00:10:57.511Z,100646.64
2018-09-25T00:13:30.916Z,100638.41
2018-09-25T00:16:04.530Z,100641.25
2018-09-25T00:18:37.975Z,100632.22
2018-09-25T00:21:11.748Z,100638.80
2018-09-25T00:23:45.239Z,100639.72
2018-09-25T00:26:18.898Z,100649.45
2018-09-25T00:28:52.476Z,100643.25
2018-09-25T00:31:26.175Z,100645.06
2018-09-25T00:33:59.625Z,100640.19
2018-09-25T00:36:33.103Z,100643.88
2018-09-25T00:39:06.771Z,100652.30
2018-09-25T00:41:40.491Z,100647.45
2018-09-25T00:44:13.976Z,100647.80
2018-09-25T00:46:47.571Z,100644.65
2018-09-25T00:49:21.107Z,100649.25
2018-09-25T00:51:54.734Z,100641.83
2018-09-25T00:54:28.232Z,100646.41
2018-09-25T00:57:01.624Z,100646.14
2018-09-25T00:59:35.148Z,100638.56
2018-09-25T01:02:08.635Z,100639.37
2018-09-25T01:04:42.405Z,100646.11
2018-09-25T01:07:15.951Z,100644.00
2018-09-25T01:09:49.609Z,100642.99
2018-09-25T01:12:23.186Z,100641.03
2018-09-25T01:14:56.879Z,100640.47
2018-09-25T01:17:30.386Z,100640.84
2018-09-25T01:20:03.987Z,100643.47
2018-09-25T01:22:37.560Z,100647.00
2018-09-25T01:25:11.023Z,100642.96
2018-09-25T01:27:44.647Z,100647.20
2018-09-25T01:30:18.240Z,100646.08
2018-09-25T01:32:51.719Z,100645.09
2018-09-25T01:35:25.319Z,100649.27
2018-09-25T01:37:58.835Z,100650.77
2018-09-25T01:40:32.277Z,100650.27
2018-09-25T01:43:05.916Z,100653.55
2018-09-25T01:45:39.571Z,100646.25
2018-09-25T01:48:13.091Z,100642.67
2018-09-25T01:50:46.592Z,100651.02
2018-09-25T01:53:20.238Z,100648.39
2018-09-25T01:55:53.722Z,100642.39
2018-09-25T01:58:27.195Z,100642.67
2018-09-25T02:01:00.690Z,100644.00
2018-09-25T02:03:34.087Z,100645.80
2018-09-25T02:06:07.750Z,100637.22
2018-09-25T02:08:41.934Z,100630.55
2018-09-25T02:11:15.476Z,100639.66
2018-09-25T02:13:49.034Z,100642.91
2018-09-25T02:16:22.620Z,100650.23
2018-09-25T02:18:56.768Z,100650.28
2018-09-25T02:21:30.337Z,100652.89
2018-09-25T02:24:04.023Z,100654.56
2018-09-25T02:26:37.511Z,100658.98
2018-09-25T02:29:11.191Z,100657.44
2018-09-25T02:31:44.701Z,100660.65
2018-09-25T02:34:18.224Z,100660.84
2018-09-25T02:36:51.752Z,100665.80
2018-09-25T02:39:25.315Z,100667.16
2018-09-25T02:41:59.478Z,100663.26
2018-09-25T02:44:32.980Z,100661.95
2018-09-25T02:47:06.563Z,100655.54
2018-09-25T02:49:40.107Z,100664.23
2018-09-25T02:52:13.587Z,100679.75
2018-09-25T02:54:47.268Z,100675.61
2018-09-25T02:57:20.679Z,100679.89
2018-09-25T02:59:54.317Z,100673.96
2018-09-25T03:02:27.903Z,100668.80
2018-09-25T03:05:01.575Z,100671.11
2018-09-25T03:07:35.022Z,100670.03
2018-09-25T03:10:08.531Z,100668.69
2018-09-25T03:12:42.232Z,100682.53
2018-09-25T03:15:15.741Z,100677.64
2018-09-25T03:17:49.211Z,100680.63
2018-09-25T03:20:22.790Z,100679.32
2018-09-25T03:22:56.362Z,100679.11
2018-09-25T03:25:29.767Z,100684.00
2018-09-25T03:28:03.508Z,100680.90
2018-09-25T03:30:36.935Z,100680.89
2018-09-25T03:33:10.492Z,100679.42
2018-09-25T03:35:44.113Z,100677.20
2018-09-25T03:38:17.707Z,100669.69
2018-09-25T03:40:51.420Z,100664.75
2018-09-25T03:43:24.959Z,100674.11
2018-09-25T03:45:58.456Z,100680.52
2018-09-25T03:48:32.086Z,100676.81
2018-09-25T03:51:05.553Z,100676.67
2018-09-25T03:53:38.962Z,100681.37
2018-09-25T03:56:12.451Z,100674.40
2018-09-25T03:58:46.200Z,100675.25
2018-09-25T04:01:19.835Z,100678.30
2018-09-25T04:03:53.397Z,100681.44
2018-09-25T04:06:26.856Z,100692.83
2018-09-25T04:09:00.496Z,100691.76
2018-09-25T04:11:34.228Z,100692.03
2018-09-25T04:14:07.741Z,100688.84
2018-09-25T04:16:41.398Z,100689.88
2018-09-25T04:19:14.967Z,100695.97
2018-09-25T04:21:48.548Z,100703.69
2018-09-25T04:24:22.058Z,100700.20
2018-09-25T04:26:55.623Z,100698.92
2018-09-25T04:29:29.266Z,100702.23
2018-09-25T04:32:02.654Z,100703.34
2018-09-25T04:34:36.174Z,100707.89
2018-09-25T04:37:09.734Z,100709.00
2018-09-25T04:39:43.255Z,100713.88
2018-09-25T04:42:17.000Z,100708.13
2018-09-25T04:44:50.480Z,100723.03
2018-09-25T04:47:24.059Z,100723.81
2018-09-25T04:49:57.667Z,100719.51
2018-09-25T04:52:31.342Z,100719.95
2018-09-25T04:55:04.920Z,100725.24
2018-09-25T04:57:38.603Z,100723.03
2018-09-25T05:00:12.156Z,100732.63
2018-09-25T05:02:45.511Z,100742.40
2018-09-25T05:05:19.203Z,100746.70
2018-09-25T05:07:52.643Z,100743.80
2018-09-25T05:10:26.291Z,100747.36
2018-09-25T05:12:59.852Z,100755.17
2018-09-25T05:15:33.390Z,100755.34
2018-09-25T05:18:07.039Z,100755.34
2018-09-25T05:20:40.429Z,100757.84
2018-09-25T05:23:14.386Z,100754.16
2018-09-25T05:25:47.918Z,100758.16
2018-09-25T05:28:21.483Z,100754.99
2018-09-25T05:30:55.157Z,100758.52
2018-09-25T05:33:28.763Z,100766.93
2018-09-25T05:36:02.202Z,100762.41
2018-09-25T05:38:35.600Z,100762.63
2018-09-25T05:41:09.173Z,100757.48
2018-09-25T05:43:42.722Z,100763.14
2018-09-25T05:46:16.148Z,100763.96
2018-09-25T05:48:49.856Z,100763.19
2018-09-25T05:51:23.222Z,100758.22
2018-09-25T05:53:56.655Z,100759.48
2018-09-25T05:56:30.305Z,100770.97
2018-09-25T05:59:03.822Z,100778.98
2018-09-25T06:01:37.411Z,100775.30
2018-09-25T06:04:10.891Z,100776.61
2018-09-25T06:06:44.556Z,100778.20
2018-09-25T06:09:17.960Z,100775.00
2018-09-25T06:11:51.372Z,100782.98
2018-09-25T06:14:24.915Z,100777.21
2018-09-25T06:16:58.380Z,100777.09
2018-09-25T06:19:31.987Z,100785.66
2018-09-25T06:22:05.664Z,100784.12
2018-09-25T06:24:39.138Z,100788.14
2018-09-25T06:27:12.591Z,100790.70
2018-09-25T06:29:46.090Z,100791.97
2018-09-25T06:32:19.664Z,100796.14
2018-09-25T06:34:53.148Z,100800.88
2018-09-25T06:37:26.862Z,100805.63
2018-09-25T06:40:00.124Z,100798.16
2018-09-25T06:42:33.611Z,100808.21
2018-09-25T06:45:07.215Z,100809.31
2018-09-25T06:47:40.616Z,100809.78
2018-09-25T06:50:14.194Z,100813.06
2018-09-25T06:52:47.698Z,100802.53
2018-09-25T06:55:21.332Z,100808.56
2018-09-25T06:57:54.779Z,100813.31
2018-09-25T07:00:28.240Z,100809.16
2018-09-25T07:03:01.852Z,100804.98
2018-09-25T07:05:35.351Z,100807.53
2018-09-25T07:08:08.895Z,100808.31
2018-09-25T07:10:42.467Z,100811.09
2018-09-25T07:13:16.028Z,100810.31
2018-09-25T07:15:49.637Z,100816.50
2018-09-25T07:18:23.292Z,100821.62
2018-09-25T07:20:56.688Z,100824.53
2018-09-25T07:23:30.211Z,100820.84
2018-09-25T07:26:03.698Z,100823.60
2018-09-25T07:28:37.147Z,100823.84
2018-09-25T07:31:10.807Z,100817.24
2018-09-25T07:33:44.279Z,100815.23
2018-09-25T07:36:17.791Z,100815.42
2018-09-25T07:38:51.211Z,100811.23
2018-09-25T07:41:24.907Z,100817.56
2018-09-25T07:43:58.537Z,100814.73
2018-09-25T07:46:32.122Z,100814.81
2018-09-25T07:49:05.875Z,100816.45
2018-09-25T07:51:39.408Z,100816.23
2018-09-25T07:54:13.055Z,100814.23
2018-09-25T07:56:46.622Z,100809.91
2018-09-25T07:59:20.112Z,100815.95
2018-09-25T08:01:53.551Z,100821.27
2018-09-25T08:04:27.066Z,100810.26
2018-09-25T08:07:00.546Z,100816.44
2018-09-25T08:09:34.049Z,100809.66
2018-09-25T08:12:07.712Z,100817.61
2018-09-25T08:14:41.408Z,100820.98
2018-09-25T08:17:15.079Z,100823.77
2018-09-25T08:19:48.535Z,100808.78
2018-09-25T08:22:22.068Z,100815.05
2018-09-25T08:24:55.588Z,100814.33
2018-09-25T08:27:29.052Z,100818.33
2018-09-25T08:30:02.543Z,100825.03
2018-09-25T08:32:36.031Z,100821.74
2018-09-25T08:35:09.599Z,100814.94
2018-09-25T08:37:43.046Z,100814.61
2018-09-25T08:40:16.597Z,100814.61
2018-09-25T08:42:50.066Z,100821.03
2018-09-25T08:45:23.456Z,100818.91
2018-09-25T08:47:57.040Z,100815.12
2018-09-25T08:50:30.687Z,100813.64
2018-09-25T08:53:04.247Z,100824.42
2018-09-25T08:55:37.874Z,100823.94
2018-09-25T08:58:11.728Z,100823.95
2018-09-25T09:00:45.396Z,100823.17
2018-09-25T09:03:19.223Z,100812.86
2018-09-25T09:05:52.888Z,100822.86
2018-09-25T09:08:26.531Z,100821.67
2018-09-25T09:11:00.063Z,100825.50
2018-09-25T09:13:33.551Z,100827.09
2018-09-25T09:16:07.115Z,100826.58
2018-09-25T09:18:40.631Z,100828.56
2018-09-25T09:21:14.220Z,100822.52
2018-09-25T09:23:47.868Z,100828.66
2018-09-25T09:26:21.478Z,100826.34
2018-09-25T09:28:55.081Z,100817.70
2018-09-25T09:31:28.590Z,100822.06
2018-09-25T09:34:02.193Z,100822.56
2018-09-25T09:36:35.771Z,100821.88
2018-09-25T09:39:09.975Z,100819.66
2018-09-25T09:41:43.684Z,100831.30
2018-09-25T09:44:16.927Z,100819.37
2018-09-25T09:46:50.588Z,100823.52
2018-09-25T09:49:24.152Z,100821.39
2018-09-25T09:51:58.320Z,100820.53
2018-09-25T09:54:32.045Z,100819.80
2018-09-25T09:57:05.547Z,100813.44
2018-09-25T09:59:39.194Z,100817.52
2018-09-25T10:02:12.696Z,100816.08
2018-09-25T10:04:46.120Z,100814.62
2018-09-25T10:07:19.754Z,100817.86
2018-09-25T10:09:53.963Z,100816.97
2018-09-25T10:12:27.574Z,100808.13
2018-09-25T10:15:00.969Z,100817.77
2018-09-25T10:17:34.437Z,100810.70
2018-09-25T10:20:07.870Z,100803.67
2018-09-25T10:22:41.279Z,100811.94
2018-09-25T10:25:14.715Z,100802.16
2018-09-25T10:27:49.776Z,100806.05
2018-09-25T10:30:23.927Z,100800.44
2018-09-25T10:32:57.558Z,100809.18
2018-09-25T10:35:31.065Z,100808.01
2018-09-25T10:38:04.455Z,100804.72
2018-09-25T10:40:38.021Z,100792.78
2018-09-25T10:43:11.616Z,100805.67
2018-09-25T10:45:46.917Z,100800.48
2018-09-25T10:48:20.474Z,100802.73
2018-09-25T10:50:53.932Z,100792.71
2018-09-25T10:53:29.772Z,100790.59
2018-09-25T10:56:03.353Z,100790.08
2018-09-25T10:58:37.005Z,100783.11
2018-09-25T11:01:12.011Z,100787.44
2018-09-25T11:03:45.469Z,100780.09
2018-09-25T11:09:03.697Z,100772.91
2018-09-25T11:11:37.227Z,100773.83
2018-09-25T11:14:12.603Z,100771.64
2018-09-25T11:16:47.840Z,100775.32
2018-09-25T11:19:21.448Z,100770.27
2018-09-25T11:21:54.958Z,100765.64
2018-09-25T11:24:28.461Z,100759.35
2018-09-25T11:27:01.891Z,100757.35
2018-09-25T11:29:35.546Z,100755.13
2018-09-25T11:32:09.171Z,100761.44
2018-09-25T11:34:42.857Z,100759.58
2018-09-25T11:37:16.442Z,100749.56
2018-09-25T11:39:49.911Z,100752.48
2018-09-25T11:42:23.539Z,100755.01
2018-09-25T11:44:57.127Z,100751.87
2018-09-25T11:47:30.667Z,100746.06
2018-09-25T11:50:04.152Z,100742.45
2018-09-25T11:52:37.663Z,100735.45
2018-09-25T11:55:11.427Z,100736.30
2018-09-25T11:57:44.972Z,100734.41
2018-09-25T12:00:18.487Z,100738.83
2018-09-25T12:02:52.060Z,100737.05
2018-09-25T12:05:25.687Z,100732.58
2018-09-25T12:07:59.352Z,100732.36
2018-09-25T12:10:32.876Z,100733.41
2018-09-25T12:13:06.431Z,100721.52
2018-09-25T12:15:40.002Z,100722.78
2018-09-25T12:18:13.583Z,100717.97
2018-09-25T12:20:47.182Z,100707.50
2018-09-25T12:23:21.451Z,100714.95
2018-09-25T12:25:54.903Z,100712.30
2018-09-25T12:28:28.384Z,100716.33
2018-09-25T12:31:01.996Z,100710.45
2018-09-25T12:33:35.493Z,100706.61
2018-09-25T12:36:09.158Z,100711.02
2018-09-25T12:38:42.756Z,100712.78
2018-09-25T12:41:16.423Z,100712.73
2018-09-25T12:43:49.915Z,100707.76
2018-09-25T12:46:23.360Z,100714.03
2018-09-25T12:48:56.812Z,100708.55
2018-09-25T12:51:30.536Z,100712.65
2018-09-25T12:54:03.943Z,100706.94
2018-09-25T12:56:37.848Z,100701.16
2018-09-25T12:59:11.343Z,100705.32
2018-09-25T13:01:44.880Z,100712.29
2018-09-25T13:04:18.516Z,100705.10
2018-09-25T13:06:52.203Z,100708.96
2018-09-25T13:09:25.891Z,100713.95
2018-09-25T13:11:59.304Z,100705.44
2018-09-25T13:14:33.031Z,100702.09
2018-09-25T13:17:06.471Z,100704.69
2018-09-25T13:19:40.026Z,100704.30
2018-09-25T13:22:13.596Z,100703.41
2018-09-25T13:24:47.093Z,100699.39
2018-09-25T13:27:20.547Z,100703.59
2018-09-25T13:29:54.253Z,100705.27
2018-09-25T13:32:27.745Z,100700.44
2018-09-25T13:35:01.181Z,100697.49
2018-09-25T13:37:34.695Z,100693.69
2018-09-25T13:40:08.243Z,100680.69
2018-09-25T13:42:41.922Z,100676.08
2018-09-25T13:45:15.392Z,100676.82
2018-09-25T13:47:48.832Z,100671.69
2018-09-25T13:50:22.418Z,100665.94
2018-09-25T13:52:55.935Z,100672.27
2018-09-25T13:55:29.467Z,100666.22
2018-09-25T13:58:02.960Z,100667.70
2018-09-25T14:00:36.519Z,100672.26
2018-09-25T14:03:09.944Z,100671.52
2018-09-25T14:05:43.422Z,100660.45
2018-09-25T14:08:17.006Z,100661.72
2018-09-25T14:10:50.604Z,100672.77
2018-09-25T14:13:24.073Z,100660.77
2018-09-25T14:15:57.554Z,100674.33
2018-09-25T14:18:31.079Z,100675.25
2018-09-25T14:21:04.524Z,100672.05
2018-09-25T14:23:37.976Z,100655.95
2018-09-25T14:26:11.599Z,100643.48
2018-09-25T14:28:45.090Z,100654.19
2018-09-25T14:31:18.845Z,100658.27
2018-09-25T14:33:52.387Z,100651.06
2018-09-25T14:36:26.011Z,100652.22
2018-09-25T14:38:59.651Z,100653.13
2018-09-25T14:41:33.655Z,100657.57
2018-09-25T14:44:07.333Z,100656.89
2018-09-25T14:46:40.855Z,100658.46
2018-09-25T14:49:14.755Z,100647.05
2018-09-25T14:51:48.288Z,100651.27
2018-09-25T14:54:21.870Z,100649.64
2018-09-25T14:56:55.202Z,100640.45
2018-09-25T14:59:28.721Z,100635.11
2018-09-25T15:02:02.200Z,100636.80
2018-09-25T15:04:35.930Z,100630.84
2018-09-25T15:07:09.448Z,100628.93
2018-09-25T15:09:42.893Z,100634.31
2018-09-25T15:12:16.613Z,100631.08
2018-09-25T15:14:50.045Z,100630.09
2018-09-25T15:17:23.646Z,100628.80
2018-09-25T15:19:57.053Z,100620.98
2018-09-25T15:22:30.565Z,100623.41
2018-09-25T15:25:03.972Z,100621.23
2018-09-25T15:27:37.482Z,100620.37
2018-09-25T15:30:11.718Z,100621.13
2018-09-25T15:32:45.529Z,100611.28
2018-09-25T15:35:18.998Z,100622.62
2018-09-25T15:37:53.045Z,100625.22
2018-09-25T15:40:26.652Z,100620.08
2018-09-25T15:43:00.031Z,100613.98
2018-09-25T15:45:33.531Z,100597.51
2018-09-25T15:48:07.229Z,100601.04
2018-09-25T15:50:40.643Z,100604.21
2018-09-25T15:53:14.218Z,100605.70
2018-09-25T15:55:47.702Z,100604.55
2018-09-25T15:58:21.222Z,100610.41
2018-09-25T16:00:54.791Z,100597.70
2018-09-25T16:03:28.379Z,100601.35
2018-09-25T16:06:01.997Z,100611.83
2018-09-25T16:08:35.593Z,100610.52
2018-09-25T16:11:09.078Z,100610.34
2018-09-25T16:13:42.685Z,100607.91
2018-09-25T16:16:16.815Z,100612.28
2018-09-25T16:18:50.316Z,100613.47
2018-09-25T16:21:23.993Z,100610.60
2018-09-25T16:23:57.388Z,100607.42
2018-09-25T16:26:30.845Z,100606.46
2018-09-25T16:29:04.476Z,100610.47
2018-09-25T16:31:38.035Z,100611.33
2018-09-25T16:34:11.746Z,100611.84
2018-09-25T16:36:45.389Z,100617.73
2018-09-25T16:39:18.806Z,100609.98
2018-09-25T16:41:52.500Z,100614.27
2018-09-25T16:44:26.178Z,100613.97
2018-09-25T16:46:59.885Z,100618.42
2018-09-25T16:49:33.387Z,100612.56
2018-09-25T16:52:06.880Z,100621.65
2018-09-25T16:54:40.572Z,100628.38
2018-09-25T16:57:14.115Z,100630.38
2018-09-25T16:59:47.850Z,100626.27
2018-09-25T17:02:21.345Z,100626.02
2018-09-25T17:04:54.963Z,100617.91
2018-09-25T17:07:28.486Z,100618.38
2018-09-25T17:10:02.209Z,100623.56
2018-09-25T17:12:35.686Z,100634.58
2018-09-25T17:15:09.131Z,100628.05
2018-09-25T17:17:42.805Z,100628.70
2018-09-25T17:20:16.169Z,100621.89
2018-09-25T17:22:56.599Z,100628.13
2018-09-25T17:25:30.188Z,100625.33
2018-09-25T17:28:03.831Z,100624.73
2018-09-25T17:30:37.423Z,100615.83
2018-09-25T17:33:11.049Z,100616.16
2018-09-25T17:35:44.546Z,100620.58
2018-09-25T17:38:17.987Z,100621.68
2018-09-25T17:40:51.516Z,100624.66
2018-09-25T17:43:24.984Z,100634.61
2018-09-25T17:45:58.448Z,100636.02
2018-09-25T17:48:32.035Z,100631.20
2018-09-25T17:51:05.612Z,100640.08
2018-09-25T17:53:39.239Z,100645.44
2018-09-25T17:56:13.102Z,100645.95
2018-09-25T17:58:46.844Z,100645.95
2018-09-25T18:01:20.416Z,100649.68
2018-09-25T18:03:53.986Z,100645.50
2018-09-25T18:06:27.694Z,100653.95
2018-09-25T18:09:01.170Z,100657.04
2018-09-25T18:11:34.806Z,100655.13
2018-09-25T18:14:08.403Z,100662.56
2018-09-25T18:16:41.942Z,100666.74
2018-09-25T18:19:15.584Z,100673.18
2018-09-25T18:21:49.228Z,100673.12
2018-09-25T18:24:22.731Z,100676.59
2018-09-25T18:26:56.395Z,100681.42
2018-09-25T18:29:29.883Z,100689.08
2018-09-25T18:32:03.480Z,100695.50
2018-09-25T18:34:36.974Z,100701.61
2018-09-25T18:37:10.448Z,100696.00
2018-09-25T18:39:44.072Z,100704.26
2018-09-25T18:42:17.640Z,100702.00
2018-09-25T18:44:51.017Z,100692.99
2018-09-25T18:47:24.594Z,100698.25
2018-09-25T18:49:58.031Z,100701.22
2018-09-25T18:52:31.559Z,100702.53
2018-09-25T18:55:04.999Z,100704.02
2018-09-25T18:57:38.591Z,100704.47
2018-09-25T19:00:12.314Z,100716.46
2018-09-25T19:02:45.863Z,100723.24
2018-09-25T19:05:19.396Z,100721.76
2018-09-25T19:07:52.813Z,100718.79
2018-09-25T19:10:26.325Z,100723.66
2018-09-25T19:12:59.731Z,100719.76
2018-09-25T19:15:33.961Z,100729.09
2018-09-25T19:18:07.428Z,100730.27
2018-09-25T19:20:41.074Z,100740.12
2018-09-25T19:23:14.570Z,100743.42
2018-09-25T19:25:48.188Z,100738.25
2018-09-25T19:28:21.692Z,100736.27
2018-09-25T19:30:55.240Z,100739.30
2018-09-25T19:33:28.747Z,100735.13
2018-09-25T19:36:02.257Z,100737.42
2018-09-25T19:38:36.103Z,100743.46
2018-09-25T19:41:09.733Z,100746.20
2018-09-25T19:43:43.224Z,100742.22
2018-09-25T19:46:16.655Z,100753.55
2018-09-25T19:48:50.111Z,100753.43
2018-09-25T19:51:23.832Z,100747.80
2018-09-25T19:53:57.279Z,100742.16
2018-09-25T19:56:30.811Z,100746.69
2018-09-25T19:59:04.457Z,100747.84
2018-09-25T20:01:37.895Z,100736.39
2018-09-25T20:04:11.543Z,100744.24
2018-09-25T20:06:49.174Z,100748.45
2018-09-25T20:15:01.267Z,100750.47
2018-09-25T20:17:38.111Z,100753.89
2018-09-25T20:20:14.818Z,100744.77
2018-09-25T20:22:50.910Z,100737.03
2018-09-25T20:25:27.793Z,100739.41
2018-09-25T20:28:03.358Z,100740.83
2018-09-25T20:30:40.244Z,100741.11
2018-09-25T20:33:36.869Z,100743.27
2018-09-25T20:41:36.534Z,100747.70
2018-09-25T20:44:13.255Z,100744.11
2018-09-25T20:46:50.090Z,100747.59
2018-09-25T20:49:36.786Z,100750.80
2018-09-25T20:52:13.492Z,100752.05
2018-09-25T20:54:50.155Z,100755.19
2018-09-25T20:57:27.167Z,100756.05
2018-09-25T21:00:04.255Z,100765.48
2018-09-25T21:02:45.259Z,100758.95
2018-09-25T21:05:18.738Z,100750.91
2018-09-25T21:07:52.552Z,100748.98
2018-09-25T21:10:26.137Z,100746.26
2018-09-25T21:12:59.939Z,100745.08
2018-09-25T21:15:33.611Z,100735.04
2018-09-25T21:18:07.152Z,100737.41
2018-09-25T21:20:40.936Z,100732.55
2018-09-25T21:23:14.378Z,100732.80
2018-09-25T21:25:47.939Z,100729.01
2018-09-25T21:28:21.700Z,100739.15
2018-09-25T21:30:55.380Z,100738.70
2018-09-25T21:33:28.948Z,100739.89
2018-09-25T21:36:02.565Z,100729.91
2018-09-25T21:38:36.097Z,100724.83
2018-09-25T21:41:09.646Z,100724.63
2018-09-25T21:43:43.211Z,100728.87
2018-09-25T21:46:16.778Z,100731.37
2018-09-25T21:48:50.421Z,100725.47
2018-09-25T21:51:24.317Z,100732.25
2018-09-25T21:53:57.713Z,100727.61
2018-09-25T21:56:31.324Z,100726.56
2018-09-25T22:02:49.384Z,100721.19
2018-09-25T22:05:22.920Z,100719.78
2018-09-25T22:07:56.410Z,100709.62
2018-09-25T22:10:29.976Z,100706.69
2018-09-25T22:13:03.499Z,100704.13
2018-09-25T22:15:37.014Z,100704.91
2018-09-25T22:18:10.603Z,100701.88
2018-09-25T22:20:44.183Z,100702.05
2018-09-25T22:23:18.024Z,100698.25
2018-09-25T22:25:51.592Z,100691.36
2018-09-25T22:28:25.041Z,100695.13
2018-09-25T22:30:58.617Z,100680.95
2018-09-25T22:33:32.302Z,100681.28
2018-09-25T22:36:06.136Z,100670.23
2018-09-25T22:38:39.831Z,100673.86
2018-09-25T22:41:13.627Z,100673.59
2018-09-25T22:43:47.118Z,100673.83
2018-09-25T22:46:20.580Z,100673.66
2018-09-25T22:48:54.289Z,100675.94
2018-09-25T22:51:27.737Z,100680.62
2018-09-25T22:54:01.497Z,100685.34
2018-09-25T22:56:35.097Z,100682.17
2018-09-25T22:59:08.603Z,100678.26
2018-09-25T23:01:42.259Z,100685.97
2018-09-25T23:04:15.763Z,100676.55
2018-09-25T23:06:49.504Z,100665.92
2018-09-25T23:09:22.946Z,100666.39
2018-09-25T23:11:56.555Z,100657.87
2018-09-25T23:14:30.132Z,100666.70
2018-09-25T23:17:03.784Z,100670.55
2018-09-25T23:19:37.407Z,100671.73
2018-09-25T23:22:10.983Z,100670.98
2018-09-25T23:24:44.972Z,100674.54
2018-09-25T23:27:18.508Z,100672.04
2018-09-25T23:29:52.072Z,100667.18
2018-09-25T23:32:25.759Z,100662.15
2018-09-25T23:34:59.414Z,100659.92
2018-09-25T23:37:32.934Z,100659.48
2018-09-25T23:40:21.391Z,100654.62
2018-09-25T23:42:56.849Z,100655.73
2018-09-25T23:45:30.423Z,100653.75
2018-09-25T23:48:06.730Z,100646.55
2018-09-25T23:50:42.386Z,100650.83
2018-09-25T23:54:17.048Z,100648.33
2018-09-25T23:56:50.547Z,100643.86
2018-09-25T23:59:24.975Z,100633.83
